FBU152 LFPO-KLAX
Flight info
| Callsign | FBU152 |
|---|---|
| Flight time | N/A |
| Altitude | 34000 |
| Route | ATREX DCT VESAN DCT RATUK DCT SOVAT L613 SANDY UN601 LESTA UP6 RODOL UM65 TENSO L603 BELOX DCT KUGUR DCT PIKIL/M085F350 NATA JANJO/N0494F360 DCT DENSO DCT AGLOL/N0494F380 DCT MERNU DCT XEXUL DCT BLUOX DCT RAP J158 DDY J107 OCS/N0485F400 J107 NORRA J100 LAS Q70 HAILO DCT KOPLE BOGET2 |
| Aircraft | A359/H-SDE2E3GHIJ3J4J5LM1ORWXY/LB1D1 |
Departure
| Time | 2026-05-04 13:33 |
|---|---|
| Airport | Paris-Orly Airport (LFPO) |
Arrival
| Time | N/A |
|---|---|
| Airport | Los Angeles International Airport (KLAX) |
| Time | Latitude | Longitude | Altitude | Speed | Heading |
|---|---|---|---|---|---|
| 2026-05-04 13:11 | 48.72580 | 2.36158 | 297 ft | 0 kts | 334° |
| 2026-05-04 13:22 | 48.72566 | 2.36169 | 301 ft | 3 kts | 327° |
| 2026-05-04 13:23 | 48.72551 | 2.36184 | 301 ft | 3 kts | 323° |
| 2026-05-04 13:23 | 48.72537 | 2.36204 | 301 ft | 3 kts | 304° |
| 2026-05-04 13:23 | 48.72528 | 2.36230 | 300 ft | 3 kts | 285° |
| 2026-05-04 13:23 | 48.72525 | 2.36259 | 299 ft | 3 kts | 266° |
| 2026-05-04 13:24 | 48.72526 | 2.36277 | 298 ft | 0 kts | 253° |
| 2026-05-04 13:27 | 48.72525 | 2.36274 | 298 ft | 1 kts | 253° |
| 2026-05-04 13:27 | 48.72523 | 2.36261 | 298 ft | 2 kts | 254° |
| 2026-05-04 13:27 | 48.72518 | 2.36229 | 300 ft | 3 kts | 255° |
| 2026-05-04 13:28 | 48.72513 | 2.36204 | 300 ft | 1 kts | 255° |
| 2026-05-04 13:28 | 48.72513 | 2.36202 | 300 ft | 0 kts | 255° |
| 2026-05-04 13:29 | 48.72512 | 2.36198 | 300 ft | 2 kts | 255° |
| 2026-05-04 13:29 | 48.72504 | 2.36152 | 300 ft | 8 kts | 255° |
| 2026-05-04 13:29 | 48.72486 | 2.36049 | 300 ft | 12 kts | 257° |
| 2026-05-04 13:30 | 48.72480 | 2.35907 | 299 ft | 15 kts | 273° |
| 2026-05-04 13:30 | 48.72477 | 2.35735 | 297 ft | 17 kts | 254° |
| 2026-05-04 13:30 | 48.72387 | 2.35640 | 297 ft | 18 kts | 188° |
| 2026-05-04 13:30 | 48.72258 | 2.35602 | 297 ft | 21 kts | 192° |
| 2026-05-04 13:31 | 48.72104 | 2.35637 | 298 ft | 24 kts | 145° |
| 2026-05-04 13:31 | 48.72078 | 2.35670 | 297 ft | 3 kts | 137° |
| 2026-05-04 13:31 | 48.72050 | 2.35713 | 297 ft | 9 kts | 129° |
| 2026-05-04 13:31 | 48.72007 | 2.35812 | 296 ft | 14 kts | 124° |
| 2026-05-04 13:32 | 48.71959 | 2.35950 | 296 ft | 15 kts | 90° |
| 2026-05-04 13:32 | 48.71991 | 2.36150 | 296 ft | 36 kts | 75° |
| 2026-05-04 13:32 | 48.72119 | 2.36847 | 303 ft | 101 kts | 74° |
| 2026-05-04 13:32 | 48.72370 | 2.38168 | 307 ft | 158 kts | 74° |
| 2026-05-04 13:33 | 48.72696 | 2.39983 | 591 ft | 187 kts | 74° |
| 2026-05-04 13:33 | 48.73033 | 2.41812 | 1276 ft | 169 kts | 74° |
| 2026-05-04 13:33 | 48.73356 | 2.43537 | 1533 ft | 176 kts | 74° |
| 2026-05-04 13:33 | 48.73710 | 2.45413 | 1716 ft | 192 kts | 75° |
| 2026-05-04 13:34 | 48.73987 | 2.47469 | 1896 ft | 207 kts | 84° |
| 2026-05-04 13:34 | 48.74102 | 2.49751 | 2031 ft | 227 kts | 87° |
| 2026-05-04 13:34 | 48.74160 | 2.51374 | 2179 ft | 238 kts | 87° |
| 2026-05-04 13:34 | 48.74256 | 2.53939 | 2541 ft | 248 kts | 87° |
| 2026-05-04 13:35 | 48.74155 | 2.56588 | 2969 ft | 256 kts | 104° |
| 2026-05-04 13:35 | 48.71740 | 2.60267 | 3895 ft | 262 kts | 167° |
| 2026-05-04 13:35 | 48.69935 | 2.60233 | 4340 ft | 266 kts | 197° |
| 2026-05-04 13:36 | 48.68361 | 2.58781 | 4842 ft | 269 kts | 228° |
| 2026-05-04 13:36 | 48.67490 | 2.56292 | 5381 ft | 272 kts | 259° |
| 2026-05-04 13:36 | 48.67254 | 2.53510 | 5924 ft | 271 kts | 266° |
| 2026-05-04 13:36 | 48.67113 | 2.50639 | 6365 ft | 276 kts | 265° |
| 2026-05-04 13:37 | 48.66956 | 2.47732 | 6788 ft | 278 kts | 265° |
| 2026-05-04 13:37 | 48.66786 | 2.44798 | 7290 ft | 281 kts | 265° |
| 2026-05-04 13:37 | 48.66613 | 2.41844 | 7824 ft | 282 kts | 264° |
| 2026-05-04 13:37 | 48.66188 | 2.38960 | 8275 ft | 283 kts | 250° |
| 2026-05-04 13:38 | 48.65460 | 2.36168 | 8763 ft | 288 kts | 247° |
| 2026-05-04 13:38 | 48.64735 | 2.33344 | 9418 ft | 289 kts | 253° |
| 2026-05-04 13:38 | 48.64562 | 2.30348 | 9985 ft | 287 kts | 278° |
| 2026-05-04 13:38 | 48.65188 | 2.27478 | 10237 ft | 300 kts | 297° |
| 2026-05-04 13:39 | 48.66225 | 2.24621 | 10513 ft | 318 kts | 300° |
| 2026-05-04 13:39 | 48.67356 | 2.21645 | 10833 ft | 333 kts | 300° |
| 2026-05-04 13:39 | 48.68530 | 2.18561 | 11163 ft | 344 kts | 300° |
| 2026-05-04 13:39 | 48.69740 | 2.15333 | 11458 ft | 358 kts | 300° |
| 2026-05-04 13:40 | 48.70971 | 2.11969 | 11728 ft | 372 kts | 299° |
| 2026-05-04 13:40 | 48.72246 | 2.08488 | 11955 ft | 383 kts | 299° |
| 2026-05-04 13:40 | 48.73549 | 2.04898 | 12197 ft | 393 kts | 299° |
| 2026-05-04 13:40 | 48.74878 | 2.01238 | 12625 ft | 398 kts | 299° |
| 2026-05-04 13:41 | 48.76219 | 1.97540 | 13079 ft | 402 kts | 299° |
| 2026-05-04 13:41 | 48.77568 | 1.93817 | 13522 ft | 405 kts | 299° |
| 2026-05-04 13:41 | 48.78933 | 1.90042 | 13970 ft | 409 kts | 299° |
| 2026-05-04 13:42 | 48.81986 | 1.82732 | 14882 ft | 414 kts | 314° |
| 2026-05-04 13:42 | 48.84177 | 1.79905 | 15310 ft | 416 kts | 324° |
| 2026-05-04 13:42 | 48.86610 | 1.77599 | 15720 ft | 418 kts | 334° |
| 2026-05-04 13:42 | 48.89365 | 1.76168 | 16138 ft | 420 kts | 348° |
| 2026-05-04 13:43 | 48.92294 | 1.75425 | 16556 ft | 423 kts | 354° |
| 2026-05-04 13:43 | 48.95231 | 1.75058 | 16971 ft | 426 kts | 358° |
| 2026-05-04 13:43 | 48.98166 | 1.74882 | 17389 ft | 428 kts | 359° |
| 2026-05-04 13:43 | 49.01156 | 1.74773 | 17817 ft | 431 kts | 359° |
| 2026-05-04 13:44 | 49.04162 | 1.74668 | 18243 ft | 434 kts | 359° |
| 2026-05-04 13:44 | 49.07195 | 1.74536 | 18614 ft | 437 kts | 359° |
| 2026-05-04 13:44 | 49.10255 | 1.74372 | 18991 ft | 440 kts | 358° |
| 2026-05-04 13:44 | 49.13324 | 1.74186 | 19374 ft | 443 kts | 358° |
| 2026-05-04 13:45 | 49.16415 | 1.73985 | 19764 ft | 445 kts | 358° |
| 2026-05-04 13:45 | 49.19529 | 1.73776 | 20175 ft | 448 kts | 358° |
| 2026-05-04 13:45 | 49.22618 | 1.73563 | 20562 ft | 451 kts | 358° |
| 2026-05-04 13:45 | 49.25765 | 1.73346 | 20959 ft | 454 kts | 358° |
| 2026-05-04 13:46 | 49.28950 | 1.73126 | 21346 ft | 458 kts | 357° |
| 2026-05-04 13:46 | 49.32142 | 1.72904 | 21742 ft | 461 kts | 357° |